메인 페이지
METAR-TAF:

METAR-TAF

공항 :

마닐라, 필리핀

니노이 아키노 국제공항

위도: 14-31N, 경도: 121-00E, 고도: 14m

현재 날씨관측

예보는 58분 전, 15:00시(UTC)에 발표되었습니다.
동북동4kt
온도 26°C
습도 79%
기압 1013 hPa
시정 10km 이상
고도 2700ft 상공 구름 조금

METAR: RPLL 191500Z 06004KT 9999 FEW027 26/22 Q1013 NOSIG RMK A2991

시각: 23:58 (15:58 UTC)

예보

예보는 4 시간 58분 전, 11:00시(UTC)에 발표되었습니다.
예보 대상 시간: 19일 12시부터 20일 18시까지 (UTC)
동북동7kt
시정 10km 이상
고도 2500ft 상공 구름 조금
일시적
19일 12시부터 19일 18시까지 (UTC)
동북동6kt
고도 2300ft 상공 구름 보통
고도 10000ft 상공 구름 많음
일시적
19일 18시부터 19일 24시까지 (UTC)
10kt

TAF: RPLL 191100Z 1912/2018 07007KT 9999 FEW025 TX33/2006Z TN25/1921Z TEMPO 1912/1918 06006KT SCT023 BKN100 TEMPO 1918/1924 08010KT

4,000개 이상의 공항 관측 자료 및 예보 (METAR 및 TAF 보고).

지도상에서 검색 가능한 기상관측소가 노란 점과 빨간 점으로 표시되어 있습니다.

기상관측소 명을 보려면 표시 위로 마우스를 이동하세요.

날씨 관측과 예보를 보려면 클릭하세요.

지도 변경 : 확대하려면 엑스 표시가 있는 녹색 버튼, 축소하려면 빼기 표시가 있는 녹색 버튼, 다음 페이지의 지도를 보려면 녹색 화살표를 클릭하세요.


METAR-TAF: